sensor_id;sensor_type;location;lat;lon;timestamp;pressure;altitude;pressure_sealevel;temperature;humidity
78894;BME280;68282;42.698;23.350;2024-01-11T00:13:42;96461.66;;;-0.73;51.74
78894;BME280;68282;42.698;23.350;2024-01-11T00:16:07;96452.25;;;-0.77;51.74
78894;BME280;68282;42.698;23.350;2024-01-11T00:18:34;96450.69;;;-0.80;51.50
78894;BME280;68282;42.698;23.350;2024-01-11T00:20:59;96445.78;;;-0.85;51.70
78894;BME280;68282;42.698;23.350;2024-01-11T00:23:26;96449.31;;;-0.84;51.93
78894;BME280;68282;42.698;23.350;2024-01-11T00:25:51;96452.25;;;-0.87;52.36
78894;BME280;68282;42.698;23.350;2024-01-11T00:28:17;96449.00;;;-0.91;52.23
78894;BME280;68282;42.698;23.350;2024-01-11T00:30:42;96451.00;;;-0.83;51.90
78894;BME280;68282;42.698;23.350;2024-01-11T00:33:09;96442.38;;;-0.87;51.82
78894;BME280;68282;42.698;23.350;2024-01-11T00:35:34;96447.03;;;-0.79;52.07
78894;BME280;68282;42.698;23.350;2024-01-11T00:38:00;96440.31;;;-0.83;51.58
78894;BME280;68282;42.698;23.350;2024-01-11T00:40:25;96447.72;;;-0.87;51.78
78894;BME280;68282;42.698;23.350;2024-01-11T00:42:51;96436.19;;;-0.97;51.90
78894;BME280;68282;42.698;23.350;2024-01-11T00:45:16;96434.50;;;-0.98;52.01
78894;BME280;68282;42.698;23.350;2024-01-11T00:47:43;96430.44;;;-1.02;52.10
78894;BME280;68282;42.698;23.350;2024-01-11T00:50:11;96436.91;;;-0.95;52.30
78894;BME280;68282;42.698;23.350;2024-01-11T00:52:38;96429.03;;;-0.97;52.63
78894;BME280;68282;42.698;23.350;2024-01-11T00:55:04;96432.28;;;-0.93;52.33
78894;BME280;68282;42.698;23.350;2024-01-11T00:57:29;96426.22;;;-0.95;52.03
78894;BME280;68282;42.698;23.350;2024-01-11T00:59:55;96430.03;;;-0.98;52.23
78894;BME280;68282;42.698;23.350;2024-01-11T01:02:21;96425.81;;;-1.00;52.51
78894;BME280;68282;42.698;23.350;2024-01-11T01:04:46;96415.25;;;-1.12;52.69
78894;BME280;68282;42.698;23.350;2024-01-11T01:07:13;96410.34;;;-1.16;52.06
78894;BME280;68282;42.698;23.350;2024-01-11T01:09:39;96424.97;;;-1.11;51.96
78894;BME280;68282;42.698;23.350;2024-01-11T01:12:06;96427.88;;;-1.04;52.43
78894;BME280;68282;42.698;23.350;2024-01-11T01:14:32;96428.91;;;-1.05;52.06
78894;BME280;68282;42.698;23.350;2024-01-11T01:16:57;96428.19;;;-1.07;52.16
78894;BME280;68282;42.698;23.350;2024-01-11T01:19:24;96417.22;;;-1.14;52.18
78894;BME280;68282;42.698;23.350;2024-01-11T01:21:55;96413.69;;;-1.24;52.23
78894;BME280;68282;42.698;23.350;2024-01-11T01:50:11;96403.25;;;-1.37;51.90
78894;BME280;68282;42.698;23.350;2024-01-11T01:52:39;96387.25;;;-1.47;52.04
78894;BME280;68282;42.698;23.350;2024-01-11T01:55:09;96398.19;;;-1.50;51.79
78894;BME280;68282;42.698;23.350;2024-01-11T01:57:37;96403.38;;;-1.48;51.79
78894;BME280;68282;42.698;23.350;2024-01-11T02:00:05;96393.25;;;-1.54;52.13
78894;BME280;68282;42.698;23.350;2024-01-11T02:02:32;96360.69;;;-1.58;51.71
78894;BME280;68282;42.698;23.350;2024-01-11T02:05:00;96372.06;;;-1.56;51.57
78894;BME280;68282;42.698;23.350;2024-01-11T02:07:27;96377.41;;;-1.46;51.85
78894;BME280;68282;42.698;23.350;2024-01-11T02:09:52;96387.97;;;-1.45;51.72
78894;BME280;68282;42.698;23.350;2024-01-11T02:12:20;96366.56;;;-1.54;51.50
78894;BME280;68282;42.698;23.350;2024-01-11T02:14:46;96368.53;;;-1.57;51.29
78894;BME280;68282;42.698;23.350;2024-01-11T02:17:11;96374.59;;;-1.54;51.19
78894;BME280;68282;42.698;23.350;2024-01-11T02:19:37;96381.03;;;-1.47;51.71
78894;BME280;68282;42.698;23.350;2024-01-11T02:22:06;96367.97;;;-1.60;51.66
78894;BME280;68282;42.698;23.350;2024-01-11T02:24:34;96373.88;;;-1.66;51.38
78894;BME280;68282;42.698;23.350;2024-01-11T02:27:02;96383.16;;;-1.61;51.68
78894;BME280;68282;42.698;23.350;2024-01-11T02:29:29;96361.50;;;-1.67;52.01
78894;BME280;68282;42.698;23.350;2024-01-11T02:31:59;96347.56;;;-1.81;51.58
78894;BME280;68282;42.698;23.350;2024-01-11T02:34:28;96363.41;;;-1.79;51.98
78894;BME280;68282;42.698;23.350;2024-01-11T02:36:55;96379.16;;;-1.76;51.86
78894;BME280;68282;42.698;23.350;2024-01-11T02:39:23;96374.94;;;-1.79;52.26
78894;BME280;68282;42.698;23.350;2024-01-11T02:41:50;96373.78;;;-1.86;51.80
78894;BME280;68282;42.698;23.350;2024-01-11T02:44:17;96374.75;;;-1.87;51.94
78894;BME280;68282;42.698;23.350;2024-01-11T02:46:43;96366.06;;;-1.89;51.81
78894;BME280;68282;42.698;23.350;2024-01-11T02:49:09;96365.34;;;-1.91;51.93
78894;BME280;68282;42.698;23.350;2024-01-11T02:51:36;96358.94;;;-1.79;51.53
78894;BME280;68282;42.698;23.350;2024-01-11T02:54:02;96363.84;;;-1.84;51.83
78894;BME280;68282;42.698;23.350;2024-01-11T02:56:28;96361.72;;;-1.90;51.74
78894;BME280;68282;42.698;23.350;2024-01-11T02:58:53;96363.00;;;-1.84;51.79
78894;BME280;68282;42.698;23.350;2024-01-11T03:01:19;96361.00;;;-1.92;51.58
78894;BME280;68282;42.698;23.350;2024-01-11T03:03:44;96358.59;;;-1.95;52.24
78894;BME280;68282;42.698;23.350;2024-01-11T03:06:10;96362.28;;;-1.87;52.20
78894;BME280;68282;42.698;23.350;2024-01-11T03:08:35;96353.16;;;-1.94;52.37
78894;BME280;68282;42.698;23.350;2024-01-11T03:11:01;96374.75;;;-1.87;52.27
78894;BME280;68282;42.698;23.350;2024-01-11T03:13:27;96364.22;;;-1.98;52.06
78894;BME280;68282;42.698;23.350;2024-01-11T03:15:52;96352.66;;;-2.09;52.73
78894;BME280;68282;42.698;23.350;2024-01-11T03:18:18;96369.09;;;-2.04;52.48
78894;BME280;68282;42.698;23.350;2024-01-11T03:20:43;96366.69;;;-2.07;52.67
78894;BME280;68282;42.698;23.350;2024-01-11T03:23:09;96346.44;;;-2.19;52.57
78894;BME280;68282;42.698;23.350;2024-01-11T03:25:34;96371.31;;;-2.09;52.85
78894;BME280;68282;42.698;23.350;2024-01-11T03:28:00;96359.91;;;-2.21;52.77
78894;BME280;68282;42.698;23.350;2024-01-11T03:30:27;96359.66;;;-2.18;52.54
78894;BME280;68282;42.698;23.350;2024-01-11T03:32:53;96369.75;;;-2.11;53.37
78894;BME280;68282;42.698;23.350;2024-01-11T03:35:19;96362.75;;;-2.12;53.34
78894;BME280;68282;42.698;23.350;2024-01-11T03:37:45;96363.03;;;-2.15;53.11
78894;BME280;68282;42.698;23.350;2024-01-11T03:40:11;96356.84;;;-2.16;53.35
78894;BME280;68282;42.698;23.350;2024-01-11T03:42:37;96351.50;;;-2.16;53.36
78894;BME280;68282;42.698;23.350;2024-01-11T03:45:03;96349.97;;;-2.19;53.35
78894;BME280;68282;42.698;23.350;2024-01-11T03:47:29;96356.91;;;-2.06;53.43
78894;BME280;68282;42.698;23.350;2024-01-11T03:49:56;96350.13;;;-2.10;53.28
78894;BME280;68282;42.698;23.350;2024-01-11T03:52:22;96352.53;;;-2.07;53.27
78894;BME280;68282;42.698;23.350;2024-01-11T03:54:48;96341.72;;;-2.06;53.44
78894;BME280;68282;42.698;23.350;2024-01-11T03:57:15;96351.72;;;-1.98;53.25
78894;BME280;68282;42.698;23.350;2024-01-11T03:59:41;96345.97;;;-1.93;52.87
78894;BME280;68282;42.698;23.350;2024-01-11T04:02:07;96341.78;;;-1.96;52.81
78894;BME280;68282;42.698;23.350;2024-01-11T04:04:33;96338.53;;;-1.99;53.17
78894;BME280;68282;42.698;23.350;2024-01-11T04:06:59;96349.63;;;-2.04;53.08
78894;BME280;68282;42.698;23.350;2024-01-11T04:09:24;96349.88;;;-2.07;52.89
78894;BME280;68282;42.698;23.350;2024-01-11T04:11:50;96328.66;;;-2.19;53.21
78894;BME280;68282;42.698;23.350;2024-01-11T04:14:15;96339.31;;;-2.19;53.12
78894;BME280;68282;42.698;23.350;2024-01-11T04:16:42;96341.00;;;-2.18;53.25
78894;BME280;68282;42.698;23.350;2024-01-11T04:19:08;96347.72;;;-2.13;53.11
78894;BME280;68282;42.698;23.350;2024-01-11T04:21:37;96341.00;;;-2.18;53.14
78894;BME280;68282;42.698;23.350;2024-01-11T04:24:05;96331.72;;;-2.13;53.26
78894;BME280;68282;42.698;23.350;2024-01-11T04:26:32;96318.69;;;-2.16;53.31
78894;BME280;68282;42.698;23.350;2024-01-11T04:28:59;96309.13;;;-2.19;53.30
78894;BME280;68282;42.698;23.350;2024-01-11T04:31:27;96320.91;;;-2.22;53.70
78894;BME280;68282;42.698;23.350;2024-01-11T04:33:52;96328.50;;;-2.17;53.48
78894;BME280;68282;42.698;23.350;2024-01-11T04:36:18;96334.94;;;-2.20;53.24
78894;BME280;68282;42.698;23.350;2024-01-11T04:38:45;96338.13;;;-2.26;53.92
78894;BME280;68282;42.698;23.350;2024-01-11T04:41:11;96335.19;;;-2.33;53.73
78894;BME280;68282;42.698;23.350;2024-01-11T04:43:40;96342.47;;;-2.35;54.23
78894;BME280;68282;42.698;23.350;2024-01-11T04:46:32;96341.91;;;-2.28;53.69
78894;BME280;68282;42.698;23.350;2024-01-11T04:48:58;96342.78;;;-2.28;53.78
78894;BME280;68282;42.698;23.350;2024-01-11T04:51:23;96339.66;;;-2.33;54.00
78894;BME280;68282;42.698;23.350;2024-01-11T04:53:48;96335.28;;;-2.34;53.85
78894;BME280;68282;42.698;23.350;2024-01-11T04:56:15;96344.88;;;-2.31;54.24
78894;BME280;68282;42.698;23.350;2024-01-11T04:58:42;96345.38;;;-2.38;54.00
78894;BME280;68282;42.698;23.350;2024-01-11T05:01:17;96340.31;;;-2.41;54.10
78894;BME280;68282;42.698;23.350;2024-01-11T05:03:44;96345.84;;;-2.33;54.14
78894;BME280;68282;42.698;23.350;2024-01-11T05:06:17;96335.97;;;-2.42;54.37
78894;BME280;68282;42.698;23.350;2024-01-11T05:09:03;96350.28;;;-2.43;53.93
78894;BME280;68282;42.698;23.350;2024-01-11T05:11:30;96330.63;;;-2.42;53.92
78894;BME280;68282;42.698;23.350;2024-01-11T05:13:55;96333.19;;;-2.40;53.91
78894;BME280;68282;42.698;23.350;2024-01-11T05:16:21;96347.34;;;-2.40;53.93
78894;BME280;68282;42.698;23.350;2024-01-11T05:18:47;96329.66;;;-2.41;53.75
78894;BME280;68282;42.698;23.350;2024-01-11T05:21:13;96321.66;;;-2.41;53.78
78894;BME280;68282;42.698;23.350;2024-01-11T05:23:40;96328.03;;;-2.32;53.53
78894;BME280;68282;42.698;23.350;2024-01-11T05:26:07;96314.38;;;-2.39;53.48
78894;BME280;68282;42.698;23.350;2024-01-11T05:28:33;96318.34;;;-2.33;53.71
78894;BME280;68282;42.698;23.350;2024-01-11T05:31:00;96316.53;;;-2.33;53.63
78894;BME280;68282;42.698;23.350;2024-01-11T05:33:25;96322.53;;;-2.30;53.29
78894;BME280;68282;42.698;23.350;2024-01-11T05:35:51;96322.84;;;-2.34;53.63
78894;BME280;68282;42.698;23.350;2024-01-11T05:38:21;96313.72;;;-2.31;54.07
78894;BME280;68282;42.698;23.350;2024-01-11T05:40:48;96300.34;;;-2.41;53.50
78894;BME280;68282;42.698;23.350;2024-01-11T05:43:13;96294.84;;;-2.49;54.13
78894;BME280;68282;42.698;23.350;2024-01-11T05:45:40;96308.63;;;-2.44;54.14
78894;BME280;68282;42.698;23.350;2024-01-11T05:48:06;96306.53;;;-2.40;54.21
78894;BME280;68282;42.698;23.350;2024-01-11T05:50:31;96297.50;;;-2.49;54.06
78894;BME280;68282;42.698;23.350;2024-01-11T05:52:58;96306.00;;;-2.34;54.15
78894;BME280;68282;42.698;23.350;2024-01-11T05:55:23;96312.19;;;-2.34;53.71
78894;BME280;68282;42.698;23.350;2024-01-11T05:57:49;96307.09;;;-2.37;53.74
78894;BME280;68282;42.698;23.350;2024-01-11T06:00:14;96289.56;;;-2.39;53.79
78894;BME280;68282;42.698;23.350;2024-01-11T06:02:40;96292.09;;;-2.38;53.82
78894;BME280;68282;42.698;23.350;2024-01-11T06:05:10;96293.94;;;-2.38;53.74
78894;BME280;68282;42.698;23.350;2024-01-11T06:07:37;96295.75;;;-2.39;54.04
78894;BME280;68282;42.698;23.350;2024-01-11T06:10:04;96297.84;;;-2.42;54.03
78894;BME280;68282;42.698;23.350;2024-01-11T06:12:31;96300.13;;;-2.28;53.74
78894;BME280;68282;42.698;23.350;2024-01-11T06:14:57;96293.44;;;-2.22;53.53
78894;BME280;68282;42.698;23.350;2024-01-11T06:17:23;96272.72;;;-2.40;53.80
78894;BME280;68282;42.698;23.350;2024-01-11T06:19:49;96295.22;;;-2.33;53.83
78894;BME280;68282;42.698;23.350;2024-01-11T06:22:15;96293.38;;;-2.32;53.58
78894;BME280;68282;42.698;23.350;2024-01-11T06:24:40;96294.66;;;-2.26;53.84
78894;BME280;68282;42.698;23.350;2024-01-11T06:27:06;96275.44;;;-2.30;53.41
78894;BME280;68282;42.698;23.350;2024-01-11T06:29:31;96279.50;;;-2.26;53.47
78894;BME280;68282;42.698;23.350;2024-01-11T06:31:57;96277.16;;;-2.19;53.34
78894;BME280;68282;42.698;23.350;2024-01-11T06:34:22;96276.16;;;-2.18;53.43
78894;BME280;68282;42.698;23.350;2024-01-11T06:36:48;96276.84;;;-2.26;53.35
78894;BME280;68282;42.698;23.350;2024-01-11T06:39:14;96280.22;;;-2.24;54.00
78894;BME280;68282;42.698;23.350;2024-01-11T06:41:39;96274.06;;;-2.14;54.48
78894;BME280;68282;42.698;23.350;2024-01-11T06:44:05;96265.09;;;-2.13;54.09
78894;BME280;68282;42.698;23.350;2024-01-11T06:46:30;96269.63;;;-2.04;53.74
78894;BME280;68282;42.698;23.350;2024-01-11T06:48:56;96276.94;;;-1.96;53.61
78894;BME280;68282;42.698;23.350;2024-01-11T06:51:22;96276.53;;;-1.82;53.62
78894;BME280;68282;42.698;23.350;2024-01-11T06:53:49;96279.38;;;-1.83;53.31
78894;BME280;68282;42.698;23.350;2024-01-11T06:56:15;96280.91;;;-1.81;53.09
78894;BME280;68282;42.698;23.350;2024-01-11T06:58:41;96275.31;;;-1.78;53.38
78894;BME280;68282;42.698;23.350;2024-01-11T07:01:07;96275.00;;;-1.75;53.08
78894;BME280;68282;42.698;23.350;2024-01-11T07:03:32;96269.84;;;-1.66;52.58
78894;BME280;68282;42.698;23.350;2024-01-11T07:05:58;96273.06;;;-1.63;52.98
78894;BME280;68282;42.698;23.350;2024-01-11T07:08:23;96268.56;;;-1.62;52.73
78894;BME280;68282;42.698;23.350;2024-01-11T07:10:49;96262.25;;;-1.61;52.59
78894;BME280;68282;42.698;23.350;2024-01-11T07:13:15;96273.22;;;-1.54;52.84
78894;BME280;68282;42.698;23.350;2024-01-11T07:15:43;96264.22;;;-1.63;52.24
78894;BME280;68282;42.698;23.350;2024-01-11T07:18:09;96271.94;;;-1.60;52.96
78894;BME280;68282;42.698;23.350;2024-01-11T07:20:36;96268.56;;;-1.52;52.75
78894;BME280;68282;42.698;23.350;2024-01-11T07:23:01;96264.66;;;-1.58;52.65
78894;BME280;68282;42.698;23.350;2024-01-11T07:25:27;96263.53;;;-1.65;52.27
78894;BME280;68282;42.698;23.350;2024-01-11T07:27:52;96259.16;;;-1.76;52.63
78894;BME280;68282;42.698;23.350;2024-01-11T07:30:18;96258.72;;;-1.72;52.91
78894;BME280;68282;42.698;23.350;2024-01-11T07:32:45;96270.53;;;-1.74;52.91
78894;BME280;68282;42.698;23.350;2024-01-11T07:35:10;96261.81;;;-1.76;52.95
78894;BME280;68282;42.698;23.350;2024-01-11T07:37:39;96269.41;;;-1.62;53.01
78894;BME280;68282;42.698;23.350;2024-01-11T07:40:08;96252.84;;;-1.65;52.90
78894;BME280;68282;42.698;23.350;2024-01-11T07:42:40;96260.84;;;-1.56;53.16
78894;BME280;68282;42.698;23.350;2024-01-11T07:45:06;96262.53;;;-1.54;53.27
78894;BME280;68282;42.698;23.350;2024-01-11T07:47:33;96251.03;;;-1.55;53.07
78894;BME280;68282;42.698;23.350;2024-01-11T07:49:58;96252.69;;;-1.54;53.13
78894;BME280;68282;42.698;23.350;2024-01-11T07:52:24;96254.53;;;-1.45;53.21
78894;BME280;68282;42.698;23.350;2024-01-11T07:54:50;96245.56;;;-1.44;52.91
78894;BME280;68282;42.698;23.350;2024-01-11T07:57:15;96251.44;;;-1.30;53.00
78894;BME280;68282;42.698;23.350;2024-01-11T07:59:41;96249.19;;;-1.25;53.05
78894;BME280;68282;42.698;23.350;2024-01-11T08:02:07;96248.75;;;-1.20;52.14
78894;BME280;68282;42.698;23.350;2024-01-11T08:04:33;96248.59;;;-1.19;52.20
78894;BME280;68282;42.698;23.350;2024-01-11T08:06:59;96236.81;;;-1.16;52.19
78894;BME280;68282;42.698;23.350;2024-01-11T08:09:25;96250.56;;;-1.01;52.97
78894;BME280;68282;42.698;23.350;2024-01-11T08:11:52;96248.16;;;-0.95;52.66
78894;BME280;68282;42.698;23.350;2024-01-11T08:14:20;96237.59;;;-0.86;52.33
78894;BME280;68282;42.698;23.350;2024-01-11T08:16:45;96220.72;;;-0.87;51.76
78894;BME280;68282;42.698;23.350;2024-01-11T08:19:11;96217.59;;;-0.82;51.56
78894;BME280;68282;42.698;23.350;2024-01-11T08:21:40;96220.97;;;-0.80;51.88
78894;BME280;68282;42.698;23.350;2024-01-11T08:24:07;96233.03;;;-0.66;51.84
78894;BME280;68282;42.698;23.350;2024-01-11T08:26:32;96222.66;;;-0.69;51.29
78894;BME280;68282;42.698;23.350;2024-01-11T08:28:58;96220.97;;;-0.70;51.36
78894;BME280;68282;42.698;23.350;2024-01-11T08:31:25;96229.50;;;-0.57;51.80
78894;BME280;68282;42.698;23.350;2024-01-11T08:33:50;96228.19;;;-0.53;51.60
78894;BME280;68282;42.698;23.350;2024-01-11T08:36:16;96229.44;;;-0.47;51.87
78894;BME280;68282;42.698;23.350;2024-01-11T08:38:42;96242.78;;;-0.47;51.75
78894;BME280;68282;42.698;23.350;2024-01-11T08:41:08;96231.09;;;-0.36;51.57
78894;BME280;68282;42.698;23.350;2024-01-11T08:43:33;96229.50;;;-0.29;51.34
78894;BME280;68282;42.698;23.350;2024-01-11T08:45:59;96229.47;;;-0.19;51.07
78894;BME280;68282;42.698;23.350;2024-01-11T08:48:26;96214.59;;;-0.32;51.32
78894;BME280;68282;42.698;23.350;2024-01-11T08:50:53;96222.81;;;-0.15;51.03
78894;BME280;68282;42.698;23.350;2024-01-11T08:53:18;96206.84;;;-0.25;50.68
78894;BME280;68282;42.698;23.350;2024-01-11T08:55:45;96196.91;;;-0.14;50.89
78894;BME280;68282;42.698;23.350;2024-01-11T08:58:10;96195.41;;;0.01;50.42
78894;BME280;68282;42.698;23.350;2024-01-11T09:00:37;96204.50;;;0.08;50.25
78894;BME280;68282;42.698;23.350;2024-01-11T09:03:03;96201.97;;;0.07;50.08
78894;BME280;68282;42.698;23.350;2024-01-11T09:05:29;96193.50;;;0.11;50.03
78894;BME280;68282;42.698;23.350;2024-01-11T09:07:56;96184.19;;;0.15;49.99
78894;BME280;68282;42.698;23.350;2024-01-11T09:10:23;96186.94;;;0.24;50.60
78894;BME280;68282;42.698;23.350;2024-01-11T09:12:48;96169.88;;;0.25;49.68
78894;BME280;68282;42.698;23.350;2024-01-11T09:15:14;96188.78;;;0.41;49.06
78894;BME280;68282;42.698;23.350;2024-01-11T09:17:39;96181.13;;;0.46;48.33
78894;BME280;68282;42.698;23.350;2024-01-11T09:20:05;96177.38;;;0.57;48.44
78894;BME280;68282;42.698;23.350;2024-01-11T09:22:31;96170.91;;;0.68;48.54
78894;BME280;68282;42.698;23.350;2024-01-11T09:24:56;96167.56;;;0.66;47.99
78894;BME280;68282;42.698;23.350;2024-01-11T09:27:22;96173.34;;;0.80;48.05
78894;BME280;68282;42.698;23.350;2024-01-11T09:29:48;96169.19;;;0.85;48.28
78894;BME280;68282;42.698;23.350;2024-01-11T09:32:13;96161.28;;;0.75;47.57
78894;BME280;68282;42.698;23.350;2024-01-11T09:34:39;96158.25;;;0.79;47.94
78894;BME280;68282;42.698;23.350;2024-01-11T09:37:05;96143.31;;;0.94;48.14
78894;BME280;68282;42.698;23.350;2024-01-11T09:39:30;96147.25;;;1.08;48.51
78894;BME280;68282;42.698;23.350;2024-01-11T09:42:06;96143.78;;;1.16;48.95
78894;BME280;68282;42.698;23.350;2024-01-11T09:44:33;96131.63;;;1.38;54.07
78894;BME280;68282;42.698;23.350;2024-01-11T09:47:00;96115.22;;;1.41;49.69
78894;BME280;68282;42.698;23.350;2024-01-11T09:49:30;96120.16;;;1.54;48.88
78894;BME280;68282;42.698;23.350;2024-01-11T09:51:59;96103.03;;;1.55;47.14
78894;BME280;68282;42.698;23.350;2024-01-11T09:54:26;96086.63;;;1.50;46.92
78894;BME280;68282;42.698;23.350;2024-01-11T09:56:53;96103.19;;;1.37;46.50
78894;BME280;68282;42.698;23.350;2024-01-11T09:59:20;96095.19;;;1.53;46.77
78894;BME280;68282;42.698;23.350;2024-01-11T10:01:49;96088.81;;;1.54;46.92
78894;BME280;68282;42.698;23.350;2024-01-11T10:04:16;96100.75;;;1.77;47.30
78894;BME280;68282;42.698;23.350;2024-01-11T10:06:43;96089.13;;;1.51;46.46
78894;BME280;68282;42.698;23.350;2024-01-11T10:09:09;96088.69;;;1.73;46.93
78894;BME280;68282;42.698;23.350;2024-01-11T10:11:35;96086.34;;;1.78;46.34
78894;BME280;68282;42.698;23.350;2024-01-11T10:14:01;96074.28;;;1.82;46.03
78894;BME280;68282;42.698;23.350;2024-01-11T10:16:28;96062.41;;;1.93;46.57
78894;BME280;68282;42.698;23.350;2024-01-11T10:18:54;96061.56;;;1.84;45.37
78894;BME280;68282;42.698;23.350;2024-01-11T10:21:21;96065.88;;;1.60;46.12
78894;BME280;68282;42.698;23.350;2024-01-11T10:23:49;96050.41;;;1.37;47.20
78894;BME280;68282;42.698;23.350;2024-01-11T10:26:19;96044.09;;;1.72;46.42
78894;BME280;68282;42.698;23.350;2024-01-11T10:28:45;96036.41;;;1.85;46.09
78894;BME280;68282;42.698;23.350;2024-01-11T10:31:12;96037.25;;;1.94;46.38
78894;BME280;68282;42.698;23.350;2024-01-11T10:33:40;96036.91;;;1.89;46.38
78894;BME280;68282;42.698;23.350;2024-01-11T10:36:06;96029.53;;;1.74;46.84
78894;BME280;68282;42.698;23.350;2024-01-11T10:38:39;96028.84;;;2.05;47.43
78894;BME280;68282;42.698;23.350;2024-01-11T10:41:07;96026.03;;;2.15;46.40
78894;BME280;68282;42.698;23.350;2024-01-11T10:43:38;95996.81;;;2.12;45.69
78894;BME280;68282;42.698;23.350;2024-01-11T10:46:05;96013.59;;;2.22;45.36
78894;BME280;68282;42.698;23.350;2024-01-11T10:48:37;96008.38;;;2.29;45.93
78894;BME280;68282;42.698;23.350;2024-01-11T10:51:09;96001.97;;;2.55;45.66
78894;BME280;68282;42.698;23.350;2024-01-11T10:53:49;95986.53;;;2.57;46.82
78894;BME280;68282;42.698;23.350;2024-01-11T10:56:32;95985.69;;;2.65;47.09
78894;BME280;68282;42.698;23.350;2024-01-11T10:59:00;95989.50;;;2.78;46.85
78894;BME280;68282;42.698;23.350;2024-01-11T11:01:27;95986.56;;;2.97;46.80
78894;BME280;68282;42.698;23.350;2024-01-11T11:03:55;95984.50;;;3.07;46.01
78894;BME280;68282;42.698;23.350;2024-01-11T11:06:22;95973.69;;;3.15;45.79
78894;BME280;68282;42.698;23.350;2024-01-11T11:08:50;95964.63;;;3.16;45.49
78894;BME280;68282;42.698;23.350;2024-01-11T11:11:17;95955.34;;;3.74;67.60
78894;BME280;68282;42.698;23.350;2024-01-11T11:13:46;95947.34;;;4.57;53.71
78894;BME280;68282;42.698;23.350;2024-01-11T11:16:15;95949.38;;;4.55;47.95
78894;BME280;68282;42.698;23.350;2024-01-11T11:18:40;95922.72;;;4.30;45.46
78894;BME280;68282;42.698;23.350;2024-01-11T11:21:10;95920.28;;;4.20;45.25
78894;BME280;68282;42.698;23.350;2024-01-11T11:23:39;95927.44;;;4.13;45.15
78894;BME280;68282;42.698;23.350;2024-01-11T11:26:06;95916.44;;;3.99;45.06
78894;BME280;68282;42.698;23.350;2024-01-11T11:28:35;95920.41;;;3.89;45.57
78894;BME280;68282;42.698;23.350;2024-01-11T11:31:02;95905.22;;;3.96;45.40
78894;BME280;68282;42.698;23.350;2024-01-11T11:33:28;95907.06;;;4.10;45.39
78894;BME280;68282;42.698;23.350;2024-01-11T11:35:57;95883.97;;;4.16;45.26
78894;BME280;68282;42.698;23.350;2024-01-11T11:38:29;95887.06;;;4.28;44.49
78894;BME280;68282;42.698;23.350;2024-01-11T11:40:57;95884.16;;;4.29;44.69
78894;BME280;68282;42.698;23.350;2024-01-11T11:43:23;95886.19;;;4.27;45.19
78894;BME280;68282;42.698;23.350;2024-01-11T11:45:50;95875.91;;;4.31;44.54
78894;BME280;68282;42.698;23.350;2024-01-11T11:48:51;95874.88;;;4.32;43.61
78894;BME280;68282;42.698;23.350;2024-01-11T11:51:18;95875.63;;;4.41;44.32
78894;BME280;68282;42.698;23.350;2024-01-11T11:53:46;95876.94;;;4.45;44.23
78894;BME280;68282;42.698;23.350;2024-01-11T11:56:12;95860.94;;;4.28;43.18
78894;BME280;68282;42.698;23.350;2024-01-11T11:58:40;95859.00;;;4.52;43.54
78894;BME280;68282;42.698;23.350;2024-01-11T12:01:06;95853.59;;;4.67;44.12
78894;BME280;68282;42.698;23.350;2024-01-11T12:03:36;95846.22;;;4.76;44.29
78894;BME280;68282;42.698;23.350;2024-01-11T12:06:06;95852.00;;;4.73;43.63
78894;BME280;68282;42.698;23.350;2024-01-11T12:08:34;95840.41;;;4.42;43.89
78894;BME280;68282;42.698;23.350;2024-01-11T12:11:00;95834.56;;;4.54;44.23
78894;BME280;68282;42.698;23.350;2024-01-11T12:13:26;95841.63;;;4.40;44.43
78894;BME280;68282;42.698;23.350;2024-01-11T12:15:52;95833.00;;;4.29;45.00
78894;BME280;68282;42.698;23.350;2024-01-11T12:18:17;95818.16;;;4.33;44.83
78894;BME280;68282;42.698;23.350;2024-01-11T12:20:44;95820.47;;;4.52;45.27
78894;BME280;68282;42.698;23.350;2024-01-11T12:23:09;95793.03;;;4.48;44.98
78894;BME280;68282;42.698;23.350;2024-01-11T12:25:37;95818.38;;;4.54;44.90
78894;BME280;68282;42.698;23.350;2024-01-11T12:28:03;95799.94;;;4.51;44.63
78894;BME280;68282;42.698;23.350;2024-01-11T12:30:54;95798.94;;;4.73;45.03
78894;BME280;68282;42.698;23.350;2024-01-11T12:33:26;95804.34;;;4.73;45.44
78894;BME280;68282;42.698;23.350;2024-01-11T12:35:54;95793.41;;;4.60;45.52
78894;BME280;68282;42.698;23.350;2024-01-11T12:38:20;95798.19;;;4.79;45.14
78894;BME280;68282;42.698;23.350;2024-01-11T12:40:46;95789.69;;;4.61;45.90
78894;BME280;68282;42.698;23.350;2024-01-11T12:43:12;95784.38;;;4.68;45.72
78894;BME280;68282;42.698;23.350;2024-01-11T12:45:38;95777.22;;;4.08;47.11
78894;BME280;68282;42.698;23.350;2024-01-11T12:48:08;95784.16;;;4.32;47.42
78894;BME280;68282;42.698;23.350;2024-01-11T12:50:34;95789.38;;;4.19;46.34
78894;BME280;68282;42.698;23.350;2024-01-11T12:53:11;95776.97;;;3.88;47.83
78894;BME280;68282;42.698;23.350;2024-01-11T12:55:47;95774.16;;;3.66;47.84
78894;BME280;68282;42.698;23.350;2024-01-11T12:58:20;95769.44;;;3.83;47.94
78894;BME280;68282;42.698;23.350;2024-01-11T13:00:50;95758.59;;;3.77;47.57
78894;BME280;68282;42.698;23.350;2024-01-11T13:03:17;95758.84;;;3.67;48.05
78894;BME280;68282;42.698;23.350;2024-01-11T13:05:45;95765.53;;;3.56;48.51
78894;BME280;68282;42.698;23.350;2024-01-11T13:08:10;95758.06;;;3.43;48.58
78894;BME280;68282;42.698;23.350;2024-01-11T13:10:39;95749.38;;;3.41;48.61
78894;BME280;68282;42.698;23.350;2024-01-11T13:13:05;95754.13;;;3.54;49.47
78894;BME280;68282;42.698;23.350;2024-01-11T13:15:31;95758.94;;;3.59;48.45
78894;BME280;68282;42.698;23.350;2024-01-11T13:17:58;95736.81;;;3.18;49.61
78894;BME280;68282;42.698;23.350;2024-01-11T13:20:23;95745.72;;;3.34;50.47
78894;BME280;68282;42.698;23.350;2024-01-11T13:23:11;95732.41;;;3.55;49.14
78894;BME280;68282;42.698;23.350;2024-01-11T13:25:39;95726.38;;;3.53;48.90
78894;BME280;68282;42.698;23.350;2024-01-11T13:28:05;95722.66;;;3.39;49.20
78894;BME280;68282;42.698;23.350;2024-01-11T13:30:32;95728.88;;;3.40;49.04